Terminal Aerodrome Forecast
Issued by NWS Norman, OK

Home | Current Version | Previous Version | Text Only | Print | Product List | Glossary On
Versions: 1 2 3 4 5 6 7 8 9 10 11 12 13 14 15 16 17 18 19 20 21 22 23
283
FTUS44 KOUN 230520
TAFOKC
TAF
KOKC 230520Z 2306/2406 15007KT P6SM SCT150 SCT250
     FM231400 23008KT P6SM SCT040
     FM231800 02014G21KT P6SM BKN040 PROB30 2320/2402 5SM -TSRA
      BKN030CB
     FM240200 03014KT P6SM VCTS BKN040CB
      TEMPO 2402/2406 4SM -TSRA OVC030CB=

USA.gov is the U.S. government's official web portal to all federal, state and local government web resources and services.